Lelia Lake, Texas
Current Conditions -  °F | °C
As of 4:53 AM on Tuesday 21 Oct 2014 (Local Time) from KCDS Reporting Station
Few Clouds Few Clouds  
Wind Chill: 61°   Ceiling: Unl
Heat Index: 61°   Visibility: 10mi
Dew Point: 54°   Wind: 5mph
Humidity: 78%   Direction: 240°WSW
Pressure: 30.07"   Gusts: NA
Location:  34.9°N, 100.77°W
Report Text: KCDS 210953Z AUTO 24004KT 10SM FEW065 16/12 A3007 RMK AO2 SLP160 T01610122
Loading
Personal Weather Stations






























Interactive Weather Map
Tropical Storm Tracking
New forecast layout! Learn more

10-Day Weather Forecast

Advertisements
Track Severe Weather on mobile